createdAt,value
2018-12-29T00:01:42.593Z,35.97
2018-12-29T00:04:12.140Z,34.60
2018-12-29T00:06:41.674Z,33.77
2018-12-29T00:09:11.232Z,38.77
2018-12-29T00:11:40.768Z,33.73
2018-12-29T00:14:10.321Z,33.53
2018-12-29T00:16:39.942Z,33.03
2018-12-29T00:19:11.195Z,32.87
2018-12-29T00:21:40.706Z,32.77
2018-12-29T00:24:10.317Z,33.37
2018-12-29T00:26:42.526Z,33.83
2018-12-29T00:29:12.260Z,34.33
2018-12-29T00:31:41.810Z,33.07
2018-12-29T00:34:11.361Z,33.63
2018-12-29T00:36:40.901Z,30.53
2018-12-29T00:39:13.647Z,34.67
2018-12-29T00:41:43.169Z,33.23
2018-12-29T00:44:12.732Z,34.57
2018-12-29T00:46:42.329Z,35.97
2018-12-29T00:49:11.915Z,36.97
2018-12-29T00:51:43.113Z,34.07
2018-12-29T00:54:12.659Z,36.37
2018-12-29T00:56:42.199Z,35.60
2018-12-29T00:59:12.768Z,35.40
2018-12-29T01:01:42.341Z,36.30
2018-12-29T01:04:11.893Z,34.73
2018-12-29T01:06:41.902Z,34.97
2018-12-29T01:09:11.429Z,30.57
2018-12-29T01:11:41.010Z,34.67
2018-12-29T01:14:10.569Z,34.03
2018-12-29T01:16:40.112Z,35.77
2018-12-29T01:19:09.668Z,35.20
2018-12-29T01:21:39.226Z,35.00
2018-12-29T01:24:08.753Z,37.37
2018-12-29T01:26:38.312Z,33.57
2018-12-29T01:29:09.084Z,33.93
2018-12-29T01:31:38.893Z,34.60
2018-12-29T01:34:08.419Z,38.30
2018-12-29T01:36:37.979Z,34.27
2018-12-29T01:39:07.700Z,36.63
2018-12-29T01:41:37.240Z,37.33
2018-12-29T01:44:06.786Z,38.97
2018-12-29T01:46:36.601Z,35.70
2018-12-29T01:49:06.147Z,36.90
2018-12-29T01:51:35.693Z,37.43
2018-12-29T01:54:05.256Z,35.00
2018-12-29T01:56:34.796Z,38.97
2018-12-29T01:59:04.330Z,34.83
2018-12-29T02:01:33.893Z,34.97
2018-12-29T02:04:03.433Z,40.60
2018-12-29T02:06:32.995Z,39.10
2018-12-29T02:09:02.950Z,37.23
2018-12-29T02:11:32.728Z,37.23
2018-12-29T02:14:02.277Z,40.77
2018-12-29T02:16:31.827Z,38.13
2018-12-29T02:19:01.447Z,39.23
2018-12-29T02:21:30.984Z,33.47
2018-12-29T02:24:00.778Z,38.27
2018-12-29T02:26:30.313Z,36.27
2018-12-29T02:29:01.154Z,37.87
2018-12-29T02:31:30.714Z,37.03
2018-12-29T02:34:00.293Z,43.93
2018-12-29T02:36:29.788Z,40.13
2018-12-29T02:38:59.345Z,38.13
2018-12-29T02:41:29.139Z,39.10
2018-12-29T02:43:58.943Z,39.07
2018-12-29T02:46:28.477Z,35.23
2018-12-29T02:48:58.025Z,36.27
2018-12-29T02:51:27.555Z,38.87
2018-12-29T02:53:57.377Z,41.23
2018-12-29T02:56:26.946Z,36.57
2018-12-29T02:58:56.469Z,40.13
2018-12-29T03:01:26.006Z,41.40
2018-12-29T03:03:55.542Z,38.80
2018-12-29T03:06:25.094Z,39.03
2018-12-29T03:08:54.672Z,39.17
2018-12-29T03:11:24.223Z,35.37
2018-12-29T03:13:53.755Z,38.80
2018-12-29T03:16:23.291Z,37.80
2018-12-29T03:18:52.871Z,40.63
2018-12-29T03:21:22.420Z,39.47
2018-12-29T03:23:52.040Z,38.70
2018-12-29T03:26:21.612Z,41.40
2018-12-29T03:28:51.176Z,39.30
2018-12-29T03:31:20.876Z,37.00
2018-12-29T03:33:50.448Z,39.70
2018-12-29T03:36:19.994Z,35.03
2018-12-29T03:38:49.552Z,37.43
2018-12-29T03:41:19.107Z,37.13
2018-12-29T03:43:48.649Z,36.03
2018-12-29T03:46:18.184Z,39.27
2018-12-29T03:48:47.765Z,40.90
2018-12-29T03:51:17.295Z,37.63
2018-12-29T03:53:46.841Z,38.57
2018-12-29T03:56:17.342Z,38.13
2018-12-29T03:58:46.884Z,41.87
2018-12-29T04:01:16.414Z,37.13
2018-12-29T04:03:45.980Z,42.80
2018-12-29T04:06:15.524Z,35.50
2018-12-29T04:09:05.797Z,39.07
2018-12-29T04:11:36.887Z,37.67
2018-12-29T04:14:06.430Z,35.60
2018-12-29T04:16:37.695Z,34.03
2018-12-29T04:19:07.192Z,39.80
2018-12-29T04:21:36.734Z,32.80
2018-12-29T04:24:06.288Z,36.80
2018-12-29T04:26:35.926Z,31.47
2018-12-29T04:29:05.446Z,32.80
2018-12-29T04:31:34.999Z,33.77
2018-12-29T04:34:04.554Z,36.13
2018-12-29T04:36:34.107Z,32.60
2018-12-29T04:39:04.384Z,34.70
2018-12-29T04:41:33.937Z,35.70
2018-12-29T04:44:03.476Z,33.13
2018-12-29T04:46:33.011Z,32.80
2018-12-29T04:49:02.556Z,31.67
2018-12-29T04:51:32.126Z,35.17
2018-12-29T04:54:01.665Z,33.47
2018-12-29T04:56:31.229Z,31.63
2018-12-29T04:59:00.783Z,31.67
2018-12-29T05:01:30.317Z,30.53
2018-12-29T05:03:59.881Z,32.07
2018-12-29T05:06:29.422Z,30.97
2018-12-29T05:08:58.981Z,30.37
2018-12-29T05:11:28.523Z,31.57
2018-12-29T05:13:58.060Z,31.67
2018-12-29T05:16:27.622Z,30.23
2018-12-29T05:18:57.178Z,28.83
2018-12-29T05:21:26.719Z,32.00
2018-12-29T05:23:56.279Z,31.37
2018-12-29T05:26:25.801Z,27.70
2018-12-29T05:28:55.365Z,30.97
2018-12-29T05:31:24.990Z,30.77
2018-12-29T05:33:54.532Z,31.07
2018-12-29T05:36:24.091Z,29.03
2018-12-29T05:38:53.611Z,28.03
2018-12-29T05:41:23.158Z,31.20
2018-12-29T05:43:52.705Z,28.87
2018-12-29T05:46:22.262Z,25.93
2018-12-29T05:48:51.795Z,27.17
2018-12-29T05:51:21.333Z,28.80
2018-12-29T05:53:50.867Z,28.50
2018-12-29T05:56:20.414Z,26.10
2018-12-29T05:58:50.021Z,28.17
2018-12-29T06:01:19.585Z,26.63
2018-12-29T06:03:49.149Z,26.30
2018-12-29T06:06:18.707Z,27.03
2018-12-29T06:08:48.265Z,25.63
2018-12-29T06:11:17.812Z,27.40
2018-12-29T06:13:47.360Z,25.53
2018-12-29T06:16:16.895Z,26.70
2018-12-29T06:18:46.430Z,26.63
2018-12-29T06:21:15.992Z,27.70
2018-12-29T06:23:45.542Z,27.23
2018-12-29T06:26:15.174Z,27.33
2018-12-29T06:28:44.726Z,26.03
2018-12-29T06:31:14.304Z,25.37
2018-12-29T06:33:45.483Z,24.33
2018-12-29T06:36:15.015Z,24.77
2018-12-29T06:38:44.571Z,25.53
2018-12-29T06:41:14.122Z,24.43
2018-12-29T06:43:43.655Z,23.63
2018-12-29T06:46:13.415Z,27.23
2018-12-29T06:48:42.963Z,24.60
2018-12-29T06:51:12.511Z,28.57
2018-12-29T06:53:42.053Z,22.63
2018-12-29T06:56:11.593Z,26.40
2018-12-29T06:58:41.146Z,24.27
2018-12-29T07:01:10.678Z,25.87
2018-12-29T07:03:40.233Z,25.37
2018-12-29T07:06:09.780Z,24.10
2018-12-29T07:08:39.342Z,23.90
2018-12-29T07:11:08.870Z,25.03
2018-12-29T07:13:38.427Z,24.27
2018-12-29T07:16:07.958Z,22.20
2018-12-29T07:18:37.500Z,25.33
2018-12-29T07:21:07.042Z,24.30
2018-12-29T07:23:36.580Z,20.73
2018-12-29T07:26:06.151Z,25.30
2018-12-29T07:28:35.688Z,25.70
2018-12-29T07:31:05.226Z,26.87
2018-12-29T07:33:34.862Z,25.07
2018-12-29T07:36:04.419Z,25.90
2018-12-29T07:38:34.005Z,23.83
2018-12-29T07:41:03.538Z,24.27
2018-12-29T07:43:33.186Z,23.07
2018-12-29T07:46:03.659Z,23.90
2018-12-29T07:48:33.201Z,26.27
2018-12-29T07:51:04.300Z,24.63
2018-12-29T07:53:33.815Z,26.17
2018-12-29T07:56:03.368Z,24.80
2018-12-29T07:58:32.931Z,26.23
2018-12-29T08:01:02.470Z,26.87
2018-12-29T08:03:32.009Z,28.67
2018-12-29T08:06:01.569Z,28.40
2018-12-29T08:08:31.111Z,26.67
2018-12-29T08:11:00.761Z,26.90
2018-12-29T08:13:30.330Z,27.37
2018-12-29T08:16:01.326Z,28.37
2018-12-29T08:18:32.586Z,27.40
2018-12-29T08:21:04.863Z,25.27
2018-12-29T08:23:34.443Z,26.23
2018-12-29T08:26:04.009Z,29.60
2018-12-29T08:28:33.563Z,25.60
2018-12-29T08:31:05.180Z,29.67
2018-12-29T08:33:34.741Z,26.93
2018-12-29T08:36:04.291Z,26.80
2018-12-29T08:38:33.885Z,27.20
2018-12-29T08:41:04.480Z,27.27
2018-12-29T08:43:37.003Z,26.90
2018-12-29T08:46:08.049Z,28.43
2018-12-29T08:48:37.693Z,29.50
2018-12-29T08:51:07.205Z,28.30
2018-12-29T08:53:36.760Z,26.77
2018-12-29T08:56:06.307Z,27.20
2018-12-29T08:58:36.399Z,31.33
2018-12-29T09:01:06.247Z,27.20
2018-12-29T09:03:35.888Z,29.07
2018-12-29T09:06:05.528Z,29.93
2018-12-29T09:08:42.160Z,26.17
2018-12-29T09:11:11.830Z,26.33
2018-12-29T09:13:41.373Z,28.03
2018-12-29T09:16:11.198Z,29.37
2018-12-29T09:18:41.682Z,28.13
2018-12-29T09:21:11.238Z,26.53
2018-12-29T09:23:42.567Z,28.63
2018-12-29T09:26:13.912Z,28.50
2018-12-29T09:28:43.891Z,24.57
2018-12-29T09:31:13.426Z,27.33
2018-12-29T09:33:43.046Z,32.00
2018-12-29T09:36:13.153Z,28.97
2018-12-29T09:38:42.690Z,28.27
2018-12-29T09:41:12.440Z,28.43
2018-12-29T09:43:41.972Z,29.93
2018-12-29T09:46:11.623Z,32.13
2018-12-29T09:48:41.138Z,28.07
2018-12-29T09:51:10.705Z,29.47
2018-12-29T09:53:41.173Z,28.10
2018-12-29T09:56:10.738Z,28.40
2018-12-29T09:58:40.310Z,30.93
2018-12-29T10:01:09.883Z,29.07
2018-12-29T10:03:41.830Z,29.07
2018-12-29T10:06:11.360Z,29.83
2018-12-29T10:08:40.939Z,29.43
2018-12-29T10:11:10.482Z,31.90
2018-12-29T10:13:40.040Z,33.97
2018-12-29T10:16:10.779Z,29.57
2018-12-29T10:18:40.831Z,30.27
2018-12-29T10:21:10.731Z,33.43
2018-12-29T10:23:43.163Z,34.47
2018-12-29T10:26:13.253Z,29.50
2018-12-29T10:28:42.808Z,30.23
2018-12-29T10:31:12.434Z,32.10
2018-12-29T10:33:42.032Z,32.17
2018-12-29T10:36:11.592Z,31.20
2018-12-29T10:38:41.622Z,31.93
2018-12-29T10:41:13.572Z,33.07
2018-12-29T10:43:43.115Z,29.80
2018-12-29T10:46:13.097Z,28.93
2018-12-29T10:48:42.762Z,28.10
2018-12-29T10:51:12.625Z,31.50
2018-12-29T10:53:42.631Z,29.10
2018-12-29T10:56:12.808Z,29.63
2018-12-29T10:58:43.405Z,31.13
2018-12-29T11:01:13.438Z,32.10
2018-12-29T11:03:43.729Z,30.20
2018-12-29T11:06:13.960Z,29.57
2018-12-29T11:08:44.134Z,29.70
2018-12-29T11:11:14.920Z,29.23
2018-12-29T11:13:45.210Z,29.80
2018-12-29T11:16:16.888Z,31.60
2018-12-29T11:18:48.411Z,31.70
2018-12-29T11:21:18.771Z,31.73
2018-12-29T11:23:49.094Z,31.17
2018-12-29T11:26:19.113Z,29.60
2018-12-29T11:28:48.685Z,29.03
2018-12-29T11:31:19.697Z,33.03
2018-12-29T11:33:53.883Z,33.30
2018-12-29T11:36:23.446Z,30.90
2018-12-29T11:38:53.780Z,30.23
2018-12-29T11:41:24.098Z,26.93
2018-12-29T11:43:53.708Z,26.27
2018-12-29T11:46:23.523Z,29.07
2018-12-29T11:48:54.692Z,25.40
2018-12-29T11:51:25.925Z,27.37
2018-12-29T11:53:55.487Z,29.77
2018-12-29T11:56:25.083Z,31.73
2018-12-29T11:58:54.587Z,28.60
2018-12-29T12:01:24.397Z,28.60
2018-12-29T12:03:55.669Z,28.93
2018-12-29T12:06:25.200Z,27.70
2018-12-29T12:08:54.906Z,28.57
2018-12-29T12:11:24.454Z,30.23
2018-12-29T12:13:54.002Z,29.53
2018-12-29T12:16:23.793Z,28.33
2018-12-29T12:18:53.440Z,30.30
2018-12-29T12:21:22.982Z,31.07
2018-12-29T12:23:53.712Z,31.40
2018-12-29T12:26:24.222Z,28.30
2018-12-29T12:28:54.931Z,28.87
2018-12-29T12:31:27.652Z,26.70
2018-12-29T12:33:57.506Z,24.50
2018-12-29T12:36:27.323Z,28.83
2018-12-29T12:38:56.871Z,28.03
2018-12-29T12:41:27.132Z,27.73
2018-12-29T12:43:56.986Z,26.73
2018-12-29T12:46:26.516Z,27.17
2018-12-29T12:48:56.495Z,24.40
2018-12-29T12:51:26.153Z,25.73
2018-12-29T12:53:59.447Z,25.37
2018-12-29T12:56:29.078Z,24.60
2018-12-29T12:58:58.654Z,24.17
2018-12-29T13:01:28.732Z,23.53
2018-12-29T13:03:58.824Z,25.87
2018-12-29T13:06:28.412Z,25.60
2018-12-29T13:08:57.974Z,22.13
2018-12-29T13:11:28.299Z,24.10
2018-12-29T13:13:58.688Z,23.23
2018-12-29T13:16:28.267Z,26.83
2018-12-29T13:18:58.038Z,21.87
2018-12-29T13:21:28.761Z,23.57
2018-12-29T13:23:59.419Z,21.50
2018-12-29T13:26:29.197Z,24.17
2018-12-29T13:28:59.099Z,23.03
2018-12-29T13:31:28.636Z,22.03
2018-12-29T13:33:58.485Z,21.47
2018-12-29T13:36:28.306Z,23.53
2018-12-29T13:38:58.426Z,20.40
2018-12-29T13:41:28.987Z,24.33
2018-12-29T13:44:01.246Z,22.93
2018-12-29T13:46:31.593Z,19.90
2018-12-29T13:49:04.182Z,23.53
2018-12-29T13:51:34.699Z,20.97
2018-12-29T13:54:04.656Z,21.23
2018-12-29T13:56:34.447Z,21.57
2018-12-29T13:59:04.647Z,23.20
2018-12-29T14:01:34.233Z,21.63
2018-12-29T14:04:04.911Z,21.90
2018-12-29T14:06:35.942Z,21.93
2018-12-29T14:09:07.479Z,19.70
2018-12-29T14:11:37.571Z,20.63
2018-12-29T14:14:07.685Z,20.93
2018-12-29T14:16:38.264Z,23.03
2018-12-29T14:19:08.432Z,23.60
2018-12-29T14:21:38.692Z,21.80
2018-12-29T14:24:08.705Z,23.93
2018-12-29T14:26:39.916Z,20.47
2018-12-29T14:29:11.587Z,23.80
2018-12-29T14:31:44.043Z,22.37
2018-12-29T14:34:14.187Z,22.90
2018-12-29T14:36:44.253Z,20.87
2018-12-29T14:39:15.920Z,21.37
2018-12-29T14:41:45.422Z,19.50
2018-12-29T14:44:15.008Z,21.37
2018-12-29T14:46:44.637Z,18.20
2018-12-29T14:49:14.584Z,18.90
2018-12-29T14:51:45.149Z,18.73
2018-12-29T14:54:15.383Z,23.17
2018-12-29T14:56:45.525Z,19.47
2018-12-29T14:59:18.200Z,20.87
2018-12-29T15:01:48.699Z,20.27
2018-12-29T15:04:18.715Z,18.63
2018-12-29T15:06:49.731Z,17.90
2018-12-29T15:09:19.767Z,18.13
2018-12-29T15:11:49.364Z,17.53
2018-12-29T15:14:20.416Z,16.57
2018-12-29T15:16:50.743Z,20.13
2018-12-29T15:19:21.092Z,17.87
2018-12-29T15:21:51.514Z,20.27
2018-12-29T15:24:21.690Z,15.53
2018-12-29T15:26:52.051Z,18.83
2018-12-29T15:29:22.521Z,17.43
2018-12-29T15:31:52.550Z,15.97
2018-12-29T15:34:22.478Z,19.37
2018-12-29T15:36:52.478Z,18.07
2018-12-29T15:39:22.671Z,16.53
2018-12-29T15:41:52.958Z,18.13
2018-12-29T15:44:24.338Z,15.97
2018-12-29T15:46:54.810Z,17.30
2018-12-29T15:49:24.795Z,14.77
2018-12-29T15:51:54.547Z,15.60
2018-12-29T15:54:24.371Z,15.43
2018-12-29T15:56:54.438Z,16.03
2018-12-29T15:59:24.722Z,14.53
2018-12-29T16:01:54.648Z,15.07
2018-12-29T16:04:24.468Z,13.30
2018-12-29T16:06:54.422Z,15.63
2018-12-29T16:09:24.630Z,13.30
2018-12-29T16:11:54.827Z,15.50
2018-12-29T16:14:24.667Z,14.73
2018-12-29T16:16:54.379Z,12.70
2018-12-29T16:19:24.112Z,16.00
2018-12-29T16:21:53.690Z,14.00
2018-12-29T16:24:27.616Z,12.93
2018-12-29T16:26:57.209Z,12.77
2018-12-29T16:29:27.175Z,12.70
2018-12-29T16:31:57.057Z,10.97
2018-12-29T16:34:26.885Z,11.37
2018-12-29T16:36:56.473Z,10.53
2018-12-29T16:39:26.021Z,9.20
2018-12-29T16:41:55.558Z,8.33
2018-12-29T16:44:25.114Z,8.40
2018-12-29T16:46:56.431Z,8.23
2018-12-29T16:49:26.947Z,7.87
2018-12-29T16:51:56.647Z,7.77
2018-12-29T16:54:26.319Z,6.60
2018-12-29T16:56:56.193Z,6.20
2018-12-29T16:59:27.395Z,7.20
2018-12-29T17:01:58.437Z,5.03
2018-12-29T17:04:28.322Z,6.73
2018-12-29T17:06:58.102Z,7.83
2018-12-29T17:09:28.471Z,8.43
2018-12-29T17:11:58.121Z,6.27
2018-12-29T17:14:27.648Z,7.60
2018-12-29T17:16:57.198Z,7.57
2018-12-29T17:19:30.010Z,8.53
2018-12-29T17:21:59.747Z,8.83
2018-12-29T17:24:29.359Z,8.23
2018-12-29T17:26:58.901Z,7.90
2018-12-29T17:29:28.548Z,9.03
2018-12-29T17:31:58.425Z,8.57
2018-12-29T17:34:28.267Z,9.43
2018-12-29T17:36:58.162Z,10.03
2018-12-29T17:39:27.869Z,9.17
2018-12-29T17:41:57.612Z,9.13
2018-12-29T17:44:27.471Z,13.47
2018-12-29T17:46:57.175Z,12.57
2018-12-29T17:49:26.714Z,10.53
2018-12-29T17:51:56.779Z,13.47
2018-12-29T17:54:26.561Z,11.20
2018-12-29T17:56:57.601Z,13.17
2018-12-29T17:59:27.223Z,13.67
2018-12-29T18:01:56.778Z,15.30
2018-12-29T18:04:26.469Z,13.47
2018-12-29T18:06:56.251Z,14.53
2018-12-29T18:09:26.169Z,12.83
2018-12-29T18:11:56.216Z,13.80
2018-12-29T18:14:26.008Z,12.43
2018-12-29T18:16:55.802Z,14.30
2018-12-29T18:19:30.746Z,15.43
2018-12-29T18:21:57.265Z,15.23
2018-12-29T18:24:28.041Z,15.03
2018-12-29T18:26:57.736Z,17.37
2018-12-29T18:29:27.665Z,16.03
2018-12-29T18:31:57.489Z,17.67
2018-12-29T18:34:27.350Z,16.50
2018-12-29T18:36:58.788Z,18.90
2018-12-29T18:43:24.288Z,19.93
2018-12-29T18:46:02.138Z,17.17
2018-12-29T18:48:35.995Z,16.67
2018-12-29T18:51:09.592Z,20.33
2018-12-29T18:57:00.223Z,21.90
2018-12-29T19:00:14.538Z,18.90
2018-12-29T19:02:39.864Z,21.63
2018-12-29T19:05:14.014Z,21.93
2018-12-29T19:07:46.395Z,21.33
2018-12-29T19:10:20.755Z,20.13
2018-12-29T19:13:21.010Z,21.40
2018-12-29T19:15:35.819Z,25.50
2018-12-29T19:18:16.851Z,21.80
2018-12-29T19:20:56.947Z,22.20
2018-12-29T19:23:27.132Z,21.80
2018-12-29T19:26:11.826Z,23.13
2018-12-29T19:28:44.836Z,22.03
2018-12-29T19:31:24.548Z,23.77
2018-12-29T19:33:59.581Z,25.17
2018-12-29T19:36:41.924Z,28.00
2018-12-29T19:39:11.907Z,24.10
2018-12-29T19:41:54.778Z,27.10
2018-12-29T19:47:22.326Z,28.03
2018-12-29T19:56:18.767Z,27.43
2018-12-29T19:59:23.032Z,25.97
2018-12-29T20:02:07.490Z,24.97
2018-12-29T20:05:00.731Z,27.20
2018-12-29T20:07:25.955Z,26.70
2018-12-29T20:16:23.844Z,25.30
2018-12-29T20:32:37.942Z,21.80
2018-12-29T20:36:02.952Z,19.03
2018-12-29T20:41:42.962Z,17.67
2018-12-29T20:44:52.427Z,18.53
2018-12-29T21:01:56.902Z,11.93
2018-12-29T21:07:56.019Z,13.87
2018-12-29T21:11:05.295Z,13.67
2018-12-29T21:14:12.185Z,14.37
2018-12-29T21:17:19.150Z,11.97
2018-12-29T21:20:17.144Z,9.13
2018-12-29T21:23:18.239Z,7.30
2018-12-29T21:29:54.791Z,11.80
2018-12-29T21:39:07.423Z,14.13
2018-12-29T21:41:49.581Z,13.40
2018-12-29T21:51:58.957Z,12.97
2018-12-29T21:55:23.709Z,10.07
2018-12-29T22:01:29.357Z,11.77
2018-12-29T22:04:18.228Z,10.73
2018-12-29T22:07:24.803Z,9.80
2018-12-29T22:10:14.125Z,9.43
2018-12-29T22:12:43.739Z,11.50
2018-12-29T22:15:13.275Z,10.47
2018-12-29T22:17:45.225Z,9.03
2018-12-29T22:20:15.982Z,12.83
2018-12-29T22:22:45.534Z,11.53
2018-12-29T22:25:15.200Z,13.03
2018-12-29T22:27:44.781Z,9.63
2018-12-29T22:30:15.942Z,9.03
2018-12-29T22:32:45.569Z,9.63
2018-12-29T22:35:15.146Z,14.70
2018-12-29T22:37:44.666Z,11.00
2018-12-29T22:40:14.516Z,11.00
2018-12-29T22:42:44.087Z,8.27
2018-12-29T22:45:13.713Z,13.23
2018-12-29T22:47:45.300Z,8.80
2018-12-29T22:50:14.819Z,15.90
2018-12-29T22:52:45.517Z,8.60
2018-12-29T22:55:19.621Z,10.90
2018-12-29T22:57:49.172Z,12.97
2018-12-29T23:02:48.737Z,12.03
2018-12-29T23:05:18.946Z,12.17
2018-12-29T23:07:48.509Z,12.37
2018-12-29T23:10:18.446Z,12.00
2018-12-29T23:12:48.062Z,10.17
2018-12-29T23:15:17.793Z,16.30
2018-12-29T23:17:47.337Z,14.17
2018-12-29T23:20:16.883Z,15.93
2018-12-29T23:22:46.415Z,14.57
2018-12-29T23:25:16.052Z,10.97
2018-12-29T23:27:45.816Z,15.67
2018-12-29T23:30:15.341Z,11.67
2018-12-29T23:32:45.099Z,12.73
2018-12-29T23:35:14.648Z,13.27
2018-12-29T23:37:44.187Z,12.43
2018-12-29T23:40:13.816Z,14.50
2018-12-29T23:42:43.360Z,13.60
2018-12-29T23:45:13.257Z,11.90
2018-12-29T23:47:42.961Z,11.53
2018-12-29T23:50:13.645Z,17.57
2018-12-29T23:52:43.544Z,12.20
2018-12-29T23:55:13.088Z,11.70
2018-12-29T23:57:42.618Z,13.13
